Ward, SC (29166)

10:41 AM EDT on September 01, 2014 (GMT -0400)
KSCSALUD2 | Change Station
CLOSE
Current Station
Personal Weather Station
Location: Saluda, SC
Elevation: 505 ft
Nearby Weather Stations

Elev 505 ft 34.01 °N, 81.78 °W | Updated 3 seconds ago

Clear
Clear
88.3 °F
Feels Like 99 °F
N
2.2
Wind Variable Wind from SW
Gusts 6.9 mph

Today
High -- | Low -- °F
--% Chance of Precip.
Yesterday
High -- | Low -- °F
Precip. -- in
7:00 AM 7:52 PM
Waxing Crescent, 41% visible
Pressure 30.18 in
Visibility 10.0 miles
Clouds Clear
Heat Index 99 °F
Dew Point 76 °F
Humidity 67%
Rainfall 0.00 in
Snow Depth Not available.
UV 6 out of 12
Pollen 9.60 out of 12
Ozone Good
Flu Activity Not available.
METAR KAIK 011435Z AUTO 24003KT 10SM CLR 28/24 A3018 RMK AO2 PNO

More Conditions Fewer Conditions

Pressure 30.18 in
Visibility 10.0 miles
Clouds Clear
Heat Index 99 °F
Dew Point 76 °F
Humidity 67%
Rainfall 0.00 in
Snow Depth Not available.
UV 6 out of 12
Pollen 9.60 out of 12
Ozone Good
Flu Activity Not available.
METAR KAIK 011435Z AUTO 24003KT 10SM CLR 28/24 A3018 RMK AO2 PNO

More Conditions Fewer Conditions

10-Day Weather Forecast

Almanac

Astronomy

Sep. 01, 2014 Rise Set
Actual Time 7:00 AM EDT 7:52 PM EDT
Civil Twilight 6:35 AM EDT 8:18 PM EDT
Nautical Twilight 6:05 AM EDT 8:48 PM EDT
Astronomical Twilight 5:34 AM EDT 9:19 PM EDT
Moon 1:26 PM EDT No Moon Set
Length of Visible Light 13h 42m
Length of Day
12h 51m
Tomorrow will be 2m 2s shorter.
Waxing Crescent, 41% of the Moon is Illuminated
Today
Waxing Crescent
Sep 2
First Quarter
Sep 8
Full
Sep 15
Last Quarter
Sep 24
New

Today's Extremes

State Highs State Lows

Community

WunderPhotos

Upload Photos

1,749,253 photos uploaded!

Nearby

Air Quality

  Air Quality AQ Index Pollutant
Yesterday Good
OZONE
Current Good
OZONE
Monday Good
OZONE

Snow Depth

Station Depth Elevation
No new snow has been reported.

Earthquake Activity

City Distance Mag. Time & Date
No recent earthquake activity has been reported nearby.
Minimum magnitude displayed is 2.5.

Coastal Water Temperatures

Place Temperature
No Stations Reporting

Nearby Weather Stations